createdAt,value
2024-02-14T00:01:33.001Z,24.3
2024-02-14T00:07:12.373Z,24.1
2024-02-14T00:12:35.883Z,24.3
2024-02-14T00:17:43.732Z,24.7
2024-02-14T00:23:07.807Z,24.8
2024-02-14T00:28:47.141Z,24.6
2024-02-14T00:34:12.923Z,24.3
2024-02-14T00:39:52.517Z,24.1
2024-02-14T00:45:00.517Z,23.9
2024-02-14T00:50:42.078Z,23.9
2024-02-14T00:56:20.758Z,23.8
2024-02-14T01:02:00.113Z,23.6
2024-02-14T01:07:39.806Z,23.6
2024-02-14T01:13:19.354Z,23.5
2024-02-14T01:18:43.528Z,23.8
2024-02-14T08:11:55.012Z,22.3
2024-02-14T08:17:20.163Z,22.3
2024-02-14T08:22:51.703Z,22.1
2024-02-14T08:28:30.956Z,22.1
2024-02-14T08:34:11.338Z,22.1
2024-02-14T08:39:57.504Z,22
2024-02-14T08:45:37.756Z,22.3
2024-02-14T08:51:22.496Z,22.6
2024-02-14T08:57:06.008Z,22.5
2024-02-14T09:03:01.014Z,22.3
2024-02-14T09:08:41.191Z,22.2
2024-02-14T09:14:20.319Z,22.1
2024-02-14T09:20:01.117Z,22
2024-02-14T09:25:41.221Z,21.9
2024-02-14T09:31:34.141Z,21.9
2024-02-14T09:37:00.665Z,22.3
2024-02-14T09:42:40.151Z,22.6
2024-02-14T09:48:23.934Z,22.4
2024-02-14T09:54:04.087Z,22.3
2024-02-14T09:59:44.263Z,22.1
2024-02-14T10:05:24.151Z,22
2024-02-14T10:11:16.370Z,21.9
2024-02-14T10:16:42.935Z,21.9
2024-02-14T10:22:23.589Z,21.8
2024-02-14T10:28:03.254Z,22.1
2024-02-14T10:34:01.915Z,22.4
2024-02-14T10:39:42.068Z,22.5
2024-02-14T10:45:24.438Z,22.2
2024-02-14T10:51:04.690Z,22.1
2024-02-14T10:56:43.411Z,22
2024-02-14T11:02:23.399Z,21.9
2024-02-14T11:07:48.540Z,21.8
2024-02-14T11:13:29.227Z,21.8
2024-02-14T11:19:09.320Z,21.8
2024-02-14T11:24:51.003Z,22.3
2024-02-14T11:30:44.707Z,22.4
2024-02-14T11:36:26.049Z,22.1
2024-02-14T11:42:05.529Z,22.1
2024-02-14T11:47:46.600Z,22.1
2024-02-14T11:53:29.298Z,21.9
2024-02-14T11:59:08.752Z,21.9
2024-02-14T12:04:49.297Z,22.4
2024-02-14T12:10:30.091Z,22.4
2024-02-14T12:16:10.278Z,22.1
2024-02-14T12:21:49.939Z,22.1
2024-02-14T12:27:29.429Z,22
2024-02-14T12:33:13.459Z,22
2024-02-14T12:38:56.115Z,21.8
2024-02-14T12:44:35.231Z,22.3
2024-02-14T12:50:15.229Z,22.3
2024-02-14T12:55:53.689Z,22.3
2024-02-14T13:01:33.459Z,22.3
2024-02-14T13:07:13.428Z,22.3
2024-02-14T13:12:52.902Z,22.3
2024-02-14T13:18:33.201Z,21.9
2024-02-14T13:24:13.482Z,21.9
2024-02-14T13:29:36.002Z,22.4
2024-02-14T13:35:17.107Z,22.3
2024-02-14T13:40:55.635Z,22.3
2024-02-14T13:46:37.199Z,22.3
2024-02-14T13:52:19.548Z,22.3
2024-02-14T13:57:59.297Z,22.3
2024-02-14T14:03:37.285Z,21.8
2024-02-14T14:09:33.537Z,22.2
2024-02-14T14:15:13.268Z,22.3
2024-02-14T14:20:56.456Z,22.3
2024-02-14T14:26:37.796Z,22.3
2024-02-14T14:32:20.884Z,22.3
2024-02-14T14:38:03.939Z,22.3
2024-02-14T14:43:46.334Z,22.3
2024-02-14T14:49:13.277Z,22.3
2024-02-14T14:54:56.321Z,22.4
2024-02-14T15:00:38.638Z,22.3
2024-02-14T15:06:03.100Z,22.3
2024-02-14T15:11:44.303Z,22.2
2024-02-14T15:17:25.524Z,22.1
2024-02-14T15:23:09.019Z,22
2024-02-14T15:28:48.063Z,21.8
2024-02-14T15:34:28.211Z,21.5
2024-02-14T15:40:07.962Z,22.2
2024-02-14T15:45:46.193Z,23.1
2024-02-14T15:50:55.649Z,23.8
2024-02-14T15:56:34.906Z,24.4
2024-02-14T16:02:14.012Z,25
2024-02-14T16:07:53.816Z,25.5
2024-02-14T16:13:32.301Z,25.9
2024-02-14T16:19:12.894Z,26.3
2024-02-14T16:25:08.157Z,26.6
2024-02-14T16:30:46.879Z,26.9
2024-02-14T16:36:27.234Z,27.1
2024-02-14T16:42:21.167Z,27.1
2024-02-14T16:48:03.265Z,27.3
2024-02-14T16:53:46.404Z,27.4
2024-02-14T16:59:28.883Z,27.5
2024-02-14T17:05:05.142Z,27.8
2024-02-14T17:10:47.244Z,27.9
2024-02-14T17:16:14.474Z,28.2
2024-02-14T17:21:55.396Z,28.3
2024-02-14T17:27:43.036Z,28.3
2024-02-14T17:33:35.338Z,28.3
2024-02-14T17:39:15.559Z,28.4
2024-02-14T17:44:38.299Z,28.5
2024-02-14T17:50:18.175Z,28.6
2024-02-14T17:55:57.339Z,28.6
2024-02-14T18:01:36.295Z,28.6
2024-02-14T18:07:02.938Z,28.6
2024-02-14T18:12:44.407Z,28.6
2024-02-14T18:18:07.201Z,28.5
2024-02-14T18:23:47.501Z,28.6
2024-02-14T18:29:26.931Z,28.8
2024-02-14T18:34:54.047Z,28.9
2024-02-14T18:40:33.323Z,29.1
2024-02-14T18:46:11.418Z,29.1
2024-02-14T18:51:51.192Z,29.3
2024-02-14T18:57:29.944Z,29.3
2024-02-14T19:03:08.775Z,29.3
2024-02-14T19:08:50.067Z,29.4
2024-02-14T19:14:28.643Z,29.6
2024-02-14T19:20:21.896Z,29.6
2024-02-14T19:26:00.680Z,29.6
2024-02-14T19:31:40.088Z,29.7
